createdAt,value
2022-09-27T00:01:30.275Z,20.50
2022-09-27T00:03:57.056Z,20.50
2022-09-27T00:06:28.170Z,20.50
2022-09-27T00:08:55.086Z,20.50
2022-09-27T00:11:27.998Z,20.50
2022-09-27T00:13:55.762Z,20.50
2022-09-27T00:16:23.338Z,20.50
2022-09-27T00:18:50.165Z,20.50
2022-09-27T00:21:17.120Z,20.50
2022-09-27T00:23:43.828Z,20.50
2022-09-27T00:26:12.095Z,20.50
2022-09-27T00:28:39.226Z,20.40
2022-09-27T00:31:11.478Z,20.40
2022-09-27T00:33:38.207Z,20.50
2022-09-27T00:36:05.666Z,20.50
2022-09-27T00:38:32.724Z,20.50
2022-09-27T00:40:59.538Z,20.50
2022-09-27T00:43:26.354Z,20.50
2022-09-27T00:45:54.664Z,20.50
2022-09-27T00:48:23.814Z,20.50
2022-09-27T00:50:51.949Z,20.50
2022-09-27T00:53:27.816Z,20.50
2022-09-27T00:55:57.075Z,20.50
2022-09-27T00:58:27.422Z,20.50
2022-09-27T01:00:55.969Z,20.50
2022-09-27T01:03:30.629Z,20.50
2022-09-27T01:05:58.436Z,20.50
2022-09-27T01:08:25.139Z,20.50
2022-09-27T01:11:08.923Z,20.50
2022-09-27T01:13:43.648Z,20.50
2022-09-27T01:16:25.232Z,20.50
2022-09-27T01:18:54.677Z,20.50
2022-09-27T01:21:21.572Z,20.50
2022-09-27T01:23:53.649Z,20.50
2022-09-27T01:26:35.468Z,20.50
2022-09-27T01:29:05.624Z,20.50
2022-09-27T01:31:35.845Z,20.50
2022-09-27T01:34:19.209Z,20.50
2022-09-27T01:37:03.506Z,20.50
2022-09-27T01:39:32.985Z,20.50
2022-09-27T01:42:05.848Z,20.50
2022-09-27T01:44:39.310Z,20.40
2022-09-27T01:47:12.752Z,20.50
2022-09-27T01:49:45.651Z,20.50
2022-09-27T01:52:15.505Z,20.50
2022-09-27T01:54:45.016Z,20.50
2022-09-27T01:57:13.687Z,20.50
2022-09-27T01:59:45.722Z,20.50
2022-09-27T02:02:12.724Z,20.50
2022-09-27T02:04:40.910Z,20.50
2022-09-27T02:07:10.612Z,20.50
2022-09-27T02:09:37.295Z,20.50
2022-09-27T02:12:06.300Z,20.50
2022-09-27T02:14:42.274Z,20.50
2022-09-27T02:17:13.533Z,20.40
2022-09-27T02:19:46.295Z,20.50
2022-09-27T02:22:12.960Z,20.50
2022-09-27T02:24:46.262Z,20.50
2022-09-27T02:27:17.209Z,20.50
2022-09-27T02:29:51.043Z,20.50
2022-09-27T02:32:17.784Z,20.50
2022-09-27T02:34:45.047Z,20.50
2022-09-27T02:37:11.809Z,20.50
2022-09-27T02:39:38.530Z,20.50
2022-09-27T02:42:05.628Z,20.40
2022-09-27T02:44:32.513Z,20.50
2022-09-27T02:47:05.165Z,20.50
2022-09-27T02:49:44.344Z,20.50
2022-09-27T02:52:29.585Z,20.50
2022-09-27T02:54:59.354Z,20.50
2022-09-27T02:57:46.050Z,20.50
2022-09-27T03:00:20.418Z,20.50
2022-09-27T03:03:05.513Z,20.50
2022-09-27T03:05:35.208Z,20.50
2022-09-27T03:08:02.085Z,20.40
2022-09-27T03:10:29.248Z,20.50
2022-09-27T03:12:56.967Z,20.50
2022-09-27T03:15:23.671Z,20.50
2022-09-27T03:17:50.380Z,20.50
2022-09-27T03:20:18.048Z,20.50
2022-09-27T03:22:44.869Z,20.50
2022-09-27T03:25:11.742Z,20.40
2022-09-27T03:27:38.528Z,20.50
2022-09-27T03:30:06.395Z,20.50
2022-09-27T03:32:33.529Z,20.50
2022-09-27T03:35:00.315Z,20.50
2022-09-27T03:37:29.417Z,20.50
2022-09-27T03:39:56.139Z,20.50
2022-09-27T03:42:22.889Z,20.50
2022-09-27T03:44:51.278Z,20.40
2022-09-27T03:47:18.090Z,20.50
2022-09-27T03:49:44.877Z,20.50
2022-09-27T03:52:11.647Z,20.50
2022-09-27T03:54:38.523Z,20.50
2022-09-27T03:57:05.548Z,20.50
2022-09-27T03:59:32.415Z,20.50
2022-09-27T04:01:59.114Z,20.40
2022-09-27T04:04:25.899Z,20.50
2022-09-27T04:06:52.584Z,20.50
2022-09-27T04:09:19.292Z,20.40
2022-09-27T04:11:46.117Z,20.50
2022-09-27T04:14:13.177Z,20.50
2022-09-27T04:16:40.578Z,20.50
2022-09-27T04:19:08.098Z,20.40
2022-09-27T04:21:35.336Z,20.50
2022-09-27T04:24:02.231Z,20.50
2022-09-27T04:26:29.060Z,20.40
2022-09-27T04:28:55.790Z,20.40
2022-09-27T04:31:23.069Z,20.50
2022-09-27T04:33:50.080Z,20.40
2022-09-27T04:36:26.454Z,20.40
2022-09-27T04:38:54.136Z,20.40
2022-09-27T04:41:24.300Z,20.50
2022-09-27T04:43:58.993Z,20.50
2022-09-27T04:46:26.593Z,20.50
2022-09-27T04:48:53.320Z,20.40
2022-09-27T04:51:20.215Z,20.50
2022-09-27T04:53:47.262Z,20.40
2022-09-27T04:56:14.495Z,20.40
2022-09-27T04:58:41.428Z,20.50
2022-09-27T05:01:09.324Z,20.40
2022-09-27T05:03:36.512Z,20.40
2022-09-27T05:06:03.743Z,20.50
2022-09-27T05:08:30.448Z,20.40
2022-09-27T05:10:57.182Z,20.40
2022-09-27T05:13:23.995Z,20.40
2022-09-27T05:15:50.775Z,20.40
2022-09-27T05:18:18.114Z,20.50
2022-09-27T05:20:45.214Z,20.40
2022-09-27T05:23:11.967Z,20.40
2022-09-27T05:25:38.666Z,20.40
2022-09-27T05:28:06.238Z,20.40
2022-09-27T05:30:33.189Z,20.40
2022-09-27T05:33:00.041Z,20.40
2022-09-27T05:35:27.572Z,20.40
2022-09-27T05:37:55.091Z,20.40
2022-09-27T05:40:42.039Z,20.40
2022-09-27T05:43:09.403Z,20.40
2022-09-27T05:45:36.749Z,20.40
2022-09-27T05:48:04.226Z,20.40
2022-09-27T05:50:31.209Z,20.40
2022-09-27T05:52:58.013Z,20.40
2022-09-27T05:55:24.759Z,20.40
2022-09-27T05:57:57.343Z,20.50
2022-09-27T06:00:25.914Z,20.50
2022-09-27T06:02:53.676Z,20.40
2022-09-27T06:05:20.769Z,20.40
2022-09-27T06:07:49.639Z,20.40
2022-09-27T06:10:17.065Z,20.40
2022-09-27T06:12:43.926Z,20.40
2022-09-27T06:15:10.843Z,20.40
2022-09-27T06:17:37.761Z,20.50
2022-09-27T06:20:04.958Z,20.40
2022-09-27T06:22:31.654Z,20.40
2022-09-27T06:24:58.536Z,20.50
2022-09-27T06:27:26.400Z,20.40
2022-09-27T06:29:53.122Z,20.50
2022-09-27T06:32:20.117Z,20.50
2022-09-27T06:34:46.954Z,20.50
2022-09-27T06:37:13.663Z,20.50
2022-09-27T06:39:40.408Z,20.50
2022-09-27T06:42:07.615Z,20.50
2022-09-27T06:44:34.941Z,20.50
2022-09-27T06:47:01.659Z,20.60
2022-09-27T06:49:31.687Z,20.50
2022-09-27T06:51:58.448Z,20.60
2022-09-27T06:54:25.160Z,20.60
2022-09-27T06:56:52.041Z,20.60
2022-09-27T06:59:37.145Z,20.60
2022-09-27T07:02:04.010Z,20.60
2022-09-27T07:04:30.750Z,20.60
2022-09-27T07:06:57.811Z,20.60
2022-09-27T07:09:24.709Z,20.70
2022-09-27T07:11:51.413Z,20.70
2022-09-27T07:14:18.110Z,20.70
2022-09-27T07:16:45.672Z,20.70
2022-09-27T07:19:14.424Z,20.70
2022-09-27T07:21:41.257Z,20.70
2022-09-27T07:24:08.083Z,20.70
2022-09-27T07:26:34.791Z,20.70
2022-09-27T07:29:01.758Z,20.70
2022-09-27T07:31:30.078Z,20.80
2022-09-27T07:33:56.810Z,20.80
2022-09-27T07:36:23.794Z,20.80
2022-09-27T07:38:50.595Z,20.80
2022-09-27T07:41:17.627Z,20.80
2022-09-27T07:43:45.026Z,20.80
2022-09-27T07:46:12.148Z,20.80
2022-09-27T07:48:39.017Z,20.80
2022-09-27T07:51:07.810Z,20.80
2022-09-27T07:53:34.770Z,20.80
2022-09-27T07:56:01.670Z,20.80
2022-09-27T07:58:30.522Z,20.80
2022-09-27T08:00:58.934Z,20.80
2022-09-27T08:03:26.353Z,20.80
2022-09-27T08:05:53.082Z,20.80
2022-09-27T08:08:19.899Z,20.80
2022-09-27T08:10:47.130Z,20.80
2022-09-27T08:13:14.773Z,20.80
2022-09-27T08:15:41.584Z,20.80
2022-09-27T08:18:11.518Z,20.80
2022-09-27T08:20:38.333Z,20.80
2022-09-27T08:23:05.175Z,20.80
2022-09-27T08:25:31.914Z,20.80
2022-09-27T08:27:59.623Z,20.90
2022-09-27T08:30:27.242Z,20.80
2022-09-27T08:32:57.739Z,20.80
2022-09-27T08:35:24.687Z,20.80
2022-09-27T08:37:55.504Z,20.80
2022-09-27T08:40:24.309Z,20.80
2022-09-27T08:42:57.923Z,20.80
2022-09-27T08:45:28.746Z,20.90
2022-09-27T08:47:58.637Z,21.00
2022-09-27T08:50:28.014Z,21.10
2022-09-27T08:53:12.795Z,21.10
2022-09-27T08:55:48.107Z,21.20
2022-09-27T08:58:21.516Z,21.10
2022-09-27T09:00:51.957Z,21.20
2022-09-27T09:03:19.800Z,21.30
2022-09-27T09:06:06.925Z,21.20
2022-09-27T09:08:34.386Z,21.30
2022-09-27T09:11:25.080Z,21.30
2022-09-27T09:13:54.926Z,21.30
2022-09-27T09:16:32.866Z,21.30
2022-09-27T09:19:08.895Z,21.40
2022-09-27T09:21:43.489Z,21.40
2022-09-27T09:24:10.629Z,21.40
2022-09-27T09:26:57.654Z,21.30
2022-09-27T09:29:27.402Z,21.30
2022-09-27T09:32:07.109Z,21.40
2022-09-27T09:34:45.082Z,21.30
2022-09-27T09:37:15.906Z,21.40
2022-09-27T09:39:49.326Z,21.40
2022-09-27T09:42:19.945Z,21.30
2022-09-27T09:44:54.524Z,21.30
2022-09-27T09:47:39.709Z,21.30
2022-09-27T09:50:16.229Z,21.30
2022-09-27T09:52:45.168Z,21.30
2022-09-27T09:55:24.710Z,21.30
2022-09-27T09:58:00.205Z,21.30
2022-09-27T10:00:26.914Z,21.20
2022-09-27T10:02:55.437Z,21.20
2022-09-27T10:05:23.449Z,21.10
2022-09-27T10:07:51.655Z,21.10
2022-09-27T10:10:19.559Z,21.00
2022-09-27T10:12:47.104Z,21.00
2022-09-27T10:15:15.909Z,21.00
2022-09-27T10:17:44.888Z,21.00
2022-09-27T10:20:30.461Z,20.90
2022-09-27T10:23:00.993Z,20.90
2022-09-27T10:25:44.964Z,20.90
2022-09-27T10:28:25.829Z,20.90
2022-09-27T10:30:57.157Z,21.00
2022-09-27T10:33:24.797Z,21.00
2022-09-27T10:35:51.544Z,21.00
2022-09-27T10:38:27.745Z,20.90
2022-09-27T10:40:59.053Z,20.90
2022-09-27T10:43:29.861Z,20.90
2022-09-27T10:46:06.231Z,20.90
2022-09-27T10:48:33.309Z,20.90
2022-09-27T10:51:01.620Z,20.90
2022-09-27T10:53:29.682Z,20.90
2022-09-27T10:55:57.000Z,20.90
2022-09-27T10:58:28.779Z,20.80
2022-09-27T11:01:09.709Z,20.80
2022-09-27T11:03:37.977Z,20.80
2022-09-27T11:06:26.858Z,20.80
2022-09-27T11:08:54.295Z,20.80
2022-09-27T11:11:21.313Z,20.90
2022-09-27T11:14:08.398Z,20.80
2022-09-27T11:16:44.770Z,20.80
2022-09-27T11:19:30.122Z,20.90
2022-09-27T11:22:06.145Z,20.90
2022-09-27T11:24:38.730Z,20.80
2022-09-27T11:27:08.303Z,20.80
2022-09-27T11:30:04.360Z,20.90
2022-09-27T11:32:49.949Z,20.90
2022-09-27T11:35:29.010Z,20.80
2022-09-27T11:38:34.590Z,20.90
2022-09-27T11:41:16.560Z,20.80
2022-09-27T11:44:02.885Z,20.80
2022-09-27T11:46:42.008Z,20.80
2022-09-27T11:49:35.504Z,20.80
2022-09-27T11:52:25.192Z,20.70
2022-09-27T11:55:10.625Z,20.80
2022-09-27T11:57:47.192Z,20.80
2022-09-27T12:00:21.191Z,20.80
2022-09-27T12:03:03.206Z,20.80
2022-09-27T12:05:32.713Z,20.80
2022-09-27T12:08:18.275Z,20.80
2022-09-27T12:10:47.666Z,20.80
2022-09-27T12:13:15.395Z,20.80
2022-09-27T12:15:43.513Z,20.80
2022-09-27T12:18:14.234Z,20.80
2022-09-27T12:20:42.076Z,20.80
2022-09-27T12:23:15.520Z,20.80
2022-09-27T12:25:42.760Z,20.80
2022-09-27T12:28:25.945Z,20.80
2022-09-27T12:31:17.336Z,20.80
2022-09-27T12:33:53.774Z,20.80
2022-09-27T12:36:23.407Z,20.80
2022-09-27T12:39:01.998Z,20.80
2022-09-27T12:41:32.001Z,20.80
2022-09-27T12:43:59.218Z,20.80
2022-09-27T12:46:32.082Z,20.80
2022-09-27T12:49:17.573Z,20.80
2022-09-27T12:51:52.586Z,20.80
2022-09-27T12:54:32.242Z,20.70
2022-09-27T12:57:26.408Z,20.70
2022-09-27T13:00:12.716Z,20.80
2022-09-27T13:03:18.691Z,20.80
2022-09-27T13:06:05.792Z,20.80
2022-09-27T13:08:38.898Z,20.80
2022-09-27T13:11:05.763Z,20.80
2022-09-27T13:13:36.365Z,20.80
2022-09-27T13:16:04.075Z,20.80
2022-09-27T13:18:30.837Z,20.80
2022-09-27T13:20:57.677Z,20.80
2022-09-27T13:23:24.450Z,20.80
2022-09-27T13:25:58.162Z,20.80
2022-09-27T13:28:35.583Z,20.80
2022-09-27T13:31:07.565Z,20.80
2022-09-27T13:33:41.836Z,20.70
2022-09-27T13:36:08.509Z,20.70
2022-09-27T13:38:35.240Z,20.70
2022-09-27T13:41:17.967Z,20.70
2022-09-27T13:43:57.660Z,20.70
2022-09-27T13:46:25.676Z,20.70
2022-09-27T13:49:02.219Z,20.70
2022-09-27T13:51:40.605Z,20.70
2022-09-27T13:54:27.236Z,20.70
2022-09-27T13:56:56.377Z,20.70
2022-09-27T13:59:25.737Z,20.80
2022-09-27T14:01:53.377Z,20.70
2022-09-27T14:04:29.359Z,20.70
2022-09-27T14:06:58.245Z,20.70
2022-09-27T14:09:30.535Z,20.70
2022-09-27T14:11:59.162Z,20.70
2022-09-27T14:14:27.609Z,20.80
2022-09-27T14:16:54.898Z,20.70
2022-09-27T14:19:22.931Z,20.70
2022-09-27T14:21:49.641Z,20.70
2022-09-27T14:24:28.661Z,20.70
2022-09-27T14:27:06.102Z,20.70
2022-09-27T14:29:34.538Z,20.70
2022-09-27T14:32:10.327Z,20.70
2022-09-27T14:34:37.164Z,20.70
2022-09-27T14:37:22.502Z,20.70
2022-09-27T14:39:56.716Z,20.70
2022-09-27T14:42:25.204Z,20.70
2022-09-27T14:44:52.583Z,20.70
2022-09-27T14:47:27.836Z,20.70
2022-09-27T14:49:54.735Z,20.70
2022-09-27T14:52:31.373Z,20.70
2022-09-27T14:55:02.581Z,20.70
2022-09-27T14:57:32.971Z,20.70
2022-09-27T15:00:04.121Z,20.70
2022-09-27T15:02:33.481Z,20.70
2022-09-27T15:05:00.212Z,20.70
2022-09-27T15:07:27.820Z,20.70
2022-09-27T15:09:54.682Z,20.70
2022-09-27T15:12:25.535Z,20.70
2022-09-27T15:14:54.332Z,20.70
2022-09-27T15:17:22.249Z,20.70
2022-09-27T15:20:02.951Z,20.70
2022-09-27T15:22:37.387Z,20.70
2022-09-27T15:25:05.641Z,20.80
2022-09-27T15:27:32.327Z,20.70
2022-09-27T15:29:59.723Z,20.70
2022-09-27T15:32:28.548Z,20.70
2022-09-27T15:34:55.604Z,20.70
2022-09-27T15:37:33.805Z,20.70
2022-09-27T15:40:16.258Z,20.70
2022-09-27T15:43:02.249Z,20.70
2022-09-27T15:45:33.895Z,20.70
2022-09-27T15:48:13.401Z,20.70
2022-09-27T15:50:41.353Z,20.70
2022-09-27T15:53:09.338Z,20.70
2022-09-27T15:55:40.459Z,20.70
2022-09-27T15:58:10.823Z,20.70
2022-09-27T16:00:37.570Z,20.60
2022-09-27T16:03:04.458Z,20.70
2022-09-27T16:05:33.216Z,20.70
2022-09-27T16:08:00.124Z,20.60
2022-09-27T16:10:34.797Z,20.70
2022-09-27T16:13:01.473Z,20.70
2022-09-27T16:15:28.191Z,20.70
2022-09-27T16:17:55.128Z,20.70
2022-09-27T16:20:25.012Z,20.60
2022-09-27T16:22:52.465Z,20.70
2022-09-27T16:25:19.525Z,20.70
2022-09-27T16:27:46.332Z,20.70
2022-09-27T16:30:13.378Z,20.70
2022-09-27T16:32:41.413Z,20.70
2022-09-27T16:35:08.623Z,20.70
2022-09-27T16:37:35.641Z,20.70
2022-09-27T16:40:02.888Z,20.70
2022-09-27T16:42:30.203Z,20.70
2022-09-27T16:44:57.066Z,20.70
2022-09-27T16:47:24.822Z,20.70
2022-09-27T16:50:10.131Z,20.70
2022-09-27T16:52:36.956Z,20.70
2022-09-27T16:55:03.770Z,20.70
2022-09-27T16:57:30.468Z,20.70
2022-09-27T16:59:57.402Z,20.70
2022-09-27T17:02:24.620Z,20.70
2022-09-27T17:04:51.886Z,20.70
2022-09-27T17:07:18.806Z,20.70
2022-09-27T17:09:45.682Z,20.70
2022-09-27T17:12:12.859Z,20.70
2022-09-27T17:14:39.965Z,20.70
2022-09-27T17:17:07.486Z,20.70
2022-09-27T17:19:34.242Z,20.70
2022-09-27T17:22:01.925Z,20.70
2022-09-27T17:24:28.616Z,20.70
2022-09-27T17:26:55.488Z,20.80
2022-09-27T17:29:22.353Z,20.70
2022-09-27T17:31:49.131Z,20.70
2022-09-27T17:34:16.036Z,20.70
2022-09-27T17:36:44.489Z,20.70
2022-09-27T17:39:12.309Z,20.70
2022-09-27T17:41:40.043Z,20.70
2022-09-27T17:44:07.493Z,20.70
2022-09-27T17:46:35.350Z,20.70
2022-09-27T17:49:20.760Z,20.70
2022-09-27T17:51:48.279Z,20.70
2022-09-27T17:54:15.561Z,20.70
2022-09-27T17:56:43.137Z,20.70
2022-09-27T17:59:10.518Z,20.70
2022-09-27T18:01:38.788Z,20.80
2022-09-27T18:04:08.933Z,20.80
2022-09-27T18:06:41.943Z,20.80
2022-09-27T18:09:09.988Z,20.70
2022-09-27T18:11:36.994Z,20.70
2022-09-27T18:14:04.699Z,20.70
2022-09-27T18:16:37.007Z,20.70
2022-09-27T18:19:04.990Z,20.70
2022-09-27T18:21:31.687Z,20.70
2022-09-27T18:23:59.673Z,20.70
2022-09-27T18:26:29.093Z,20.70
2022-09-27T18:28:59.822Z,20.70
2022-09-27T18:31:26.623Z,20.70
2022-09-27T18:33:53.516Z,20.70
2022-09-27T18:36:24.986Z,20.70
2022-09-27T18:38:56.037Z,20.70
2022-09-27T18:41:23.580Z,20.70
2022-09-27T18:43:55.501Z,20.70
2022-09-27T18:46:37.900Z,20.70
2022-09-27T18:49:06.320Z,20.80
2022-09-27T18:51:33.400Z,20.70
2022-09-27T18:54:01.578Z,20.70
2022-09-27T18:56:29.020Z,20.70
2022-09-27T18:58:56.415Z,20.80
2022-09-27T19:01:23.734Z,20.70
2022-09-27T19:03:50.656Z,20.80
2022-09-27T19:06:19.263Z,20.70
2022-09-27T19:08:45.985Z,20.70
2022-09-27T19:11:17.086Z,20.80
2022-09-27T19:13:51.155Z,20.80
2022-09-27T19:16:18.535Z,20.80
2022-09-27T19:18:45.295Z,20.80
2022-09-27T19:21:12.836Z,20.80
2022-09-27T19:23:39.761Z,20.80
2022-09-27T19:26:07.400Z,20.80
2022-09-27T19:28:35.219Z,20.80
2022-09-27T19:31:09.351Z,20.70
2022-09-27T19:33:36.627Z,20.70
2022-09-27T19:36:04.411Z,20.70
2022-09-27T19:38:31.515Z,20.80
2022-09-27T19:40:58.406Z,20.70
2022-09-27T19:43:25.230Z,20.80
2022-09-27T19:45:52.061Z,20.80
2022-09-27T19:48:18.744Z,20.80
2022-09-27T19:50:55.428Z,20.80
2022-09-27T19:53:22.128Z,20.80
2022-09-27T19:55:55.597Z,20.70
2022-09-27T19:58:22.360Z,20.80
2022-09-27T20:00:56.670Z,20.80
2022-09-27T20:03:23.360Z,20.80
2022-09-27T20:05:56.232Z,20.80
2022-09-27T20:08:23.250Z,20.80
2022-09-27T20:10:56.996Z,20.80
2022-09-27T20:13:23.847Z,20.80
2022-09-27T20:15:50.956Z,20.80
2022-09-27T20:18:17.775Z,20.80
2022-09-27T20:20:44.541Z,20.80
2022-09-27T20:23:11.427Z,20.80
2022-09-27T20:25:42.791Z,20.80
2022-09-27T20:28:09.811Z,20.80
2022-09-27T20:30:36.487Z,20.80
2022-09-27T20:33:21.955Z,20.80
2022-09-27T20:35:54.610Z,20.80
2022-09-27T20:38:21.314Z,20.80
2022-09-27T20:40:54.766Z,20.80
2022-09-27T20:43:21.850Z,20.80
2022-09-27T20:45:48.675Z,20.80
2022-09-27T20:48:15.379Z,20.80
2022-09-27T20:50:42.158Z,20.80
2022-09-27T20:53:09.017Z,20.80
2022-09-27T20:55:36.212Z,20.80
2022-09-27T20:58:03.057Z,20.80
2022-09-27T21:00:29.820Z,20.80
2022-09-27T21:02:56.668Z,20.80
2022-09-27T21:05:23.408Z,20.80
2022-09-27T21:07:52.758Z,20.80
2022-09-27T21:10:19.508Z,20.80
2022-09-27T21:12:46.371Z,20.80
2022-09-27T21:15:13.058Z,20.80
2022-09-27T21:17:39.760Z,20.80
2022-09-27T21:20:06.762Z,20.80
2022-09-27T21:22:34.574Z,20.80
2022-09-27T21:25:01.251Z,20.80
2022-09-27T21:27:28.009Z,20.80
2022-09-27T21:29:54.685Z,20.70
2022-09-27T21:32:21.371Z,20.70
2022-09-27T21:34:48.125Z,20.80
2022-09-27T21:37:14.790Z,20.80
2022-09-27T21:39:41.481Z,20.80
2022-09-27T21:42:08.247Z,20.80
2022-09-27T21:44:34.918Z,20.80
2022-09-27T21:47:01.800Z,20.80
2022-09-27T21:49:30.148Z,20.80
2022-09-27T21:51:56.851Z,20.70
2022-09-27T21:54:23.556Z,20.70
2022-09-27T21:56:50.305Z,20.80
2022-09-27T21:59:18.277Z,20.70
2022-09-27T22:01:46.240Z,20.80
2022-09-27T22:04:13.298Z,20.70
2022-09-27T22:06:40.462Z,20.80
2022-09-27T22:09:08.195Z,20.80
2022-09-27T22:11:37.445Z,20.80
2022-09-27T22:14:06.846Z,20.70
2022-09-27T22:16:33.762Z,20.70
2022-09-27T22:19:00.690Z,20.70
2022-09-27T22:21:29.100Z,20.70
2022-09-27T22:23:56.585Z,20.80
2022-09-27T22:26:25.270Z,20.80
2022-09-27T22:28:52.382Z,20.80
2022-09-27T22:31:20.590Z,20.70
2022-09-27T22:33:54.659Z,20.70
2022-09-27T22:36:21.713Z,20.80
2022-09-27T22:38:48.634Z,20.70
2022-09-27T22:41:16.345Z,20.70
2022-09-27T22:43:43.452Z,20.70
2022-09-27T22:46:10.286Z,20.80
2022-09-27T22:48:37.476Z,20.80
2022-09-27T22:51:04.577Z,20.70
2022-09-27T22:53:31.696Z,20.80
2022-09-27T22:56:04.571Z,20.70
2022-09-27T22:58:31.624Z,20.70
2022-09-27T23:00:58.709Z,20.70
2022-09-27T23:03:25.654Z,20.70
2022-09-27T23:05:52.395Z,20.70
2022-09-27T23:08:19.127Z,20.70
2022-09-27T23:10:45.852Z,20.70
2022-09-27T23:13:12.552Z,20.70
2022-09-27T23:15:39.842Z,20.70
2022-09-27T23:18:06.624Z,20.70
2022-09-27T23:20:34.532Z,20.80
2022-09-27T23:23:01.720Z,20.70
2022-09-27T23:25:28.466Z,20.70
2022-09-27T23:27:55.143Z,20.70
2022-09-27T23:30:24.582Z,20.70
2022-09-27T23:32:55.896Z,20.70
2022-09-27T23:35:23.078Z,20.70
2022-09-27T23:37:52.563Z,20.70
2022-09-27T23:40:19.393Z,20.70
2022-09-27T23:42:46.136Z,20.70
2022-09-27T23:45:14.217Z,20.70
2022-09-27T23:47:40.997Z,20.70
2022-09-27T23:50:08.153Z,20.70
2022-09-27T23:52:34.845Z,20.70
2022-09-27T23:55:01.720Z,20.70
2022-09-27T23:57:28.449Z,20.70
2022-09-27T23:59:55.226Z,20.70
